| time (UTC) | temp C | wind direction | speed KPH | gust KPH | rain 1hr cm | rain 24hr cm | rain mn cm | humidity % | barometer mb |
| 20260905165506 | 20 | 318 | 1.6 | 9.7 | 0.00 | 0.00 | 0.48 | 52 | 1021.3 |
| 20260905165006 | 20 | 68 | 3.2 | 11.3 | 0.00 | 0.00 | 0.48 | 52 | 1021.2 |
| 20260905164507 | 20 | 258 | 3.2 | 8.0 | 0.00 | 0.00 | 0.48 | 52 | 1021.2 |
| 20260905164006 | 20 | 93 | 1.6 | 8.0 | 0.00 | 0.00 | 0.48 | 52 | 1021.3 |
| 20260905163509 | 20 | 321 | 6.4 | 14.5 | 0.00 | 0.00 | 0.48 | 50 | 1021.3 |
| 20260905163005 | 20 | 293 | 4.8 | 8.0 | 0.00 | 0.00 | 0.48 | 51 | 1020.9 |
| 20260905162505 | 20 | 344 | 3.2 | 12.9 | 0.00 | 0.00 | 0.48 | 49 | 1020.9 |
| 20260905162006 | 20 | 325 | 8.0 | 11.3 | 0.00 | 0.00 | 0.48 | 49 | 1020.9 |
| 20260905161507 | 20 | 318 | 6.4 | 8.0 | 0.00 | 0.00 | 0.48 | 50 | 1020.9 |
| 20260905161007 | 20 | 133 | 3.2 | 11.3 | 0.00 | 0.00 | 0.48 | 51 | 1020.9 |
| 20260905160507 | 20 | 324 | 3.2 | 12.9 | 0.00 | 0.00 | 0.48 | 49 | 1020.7 |
| 20260905160006 | 20 | 11 | 1.6 | 8.0 | 0.00 | 0.00 | 0.48 | 50 | 1020.7 |
| 20260905155506 | 20 | 328 | 6.4 | 8.0 | 0.00 | 0.00 | 0.48 | 49 | 1020.9 |
| 20260905155006 | 20 | 32 | 1.6 | 8.0 | 0.00 | 0.00 | 0.48 | 49 | 1020.7 |
| 20260905154506 | 21 | 35 | 3.2 | 11.3 | 0.00 | 0.00 | 0.48 | 49 | 1020.4 |
| 20260905154008 | 21 | 33 | 1.6 | 9.7 | 0.00 | 0.00 | 0.48 | 48 | 1020.6 |
| 20260905153506 | 21 | 19 | 3.2 | 3.2 | 0.00 | 0.00 | 0.48 | 47 | 1020.6 |
| 20260905153005 | 21 | 220 | 3.2 | 9.7 | 0.00 | 0.00 | 0.48 | 46 | 1020.4 |
| 20260905152506 | 21 | 162 | 4.8 | 12.9 | 0.00 | 0.00 | 0.48 | 46 | 1020.6 |
| 20260905152006 | 21 | 219 | 4.8 | 12.9 | 0.00 | 0.00 | 0.48 | 49 | 1020.5 |
| 20260905151506 | 21 | 71 | 1.6 | 9.7 | 0.00 | 0.00 | 0.48 | 48 | 1020.4 |
| 20260905151006 | 21 | 230 | 4.8 | 8.0 | 0.00 | 0.00 | 0.48 | 47 | 1020.7 |
| 20260905150505 | 21 | 182 | 1.6 | 4.8 | 0.00 | 0.00 | 0.48 | 48 | 1020.5 |
| 20260905150007 | 21 | 265 | 4.8 | 12.9 | 0.00 | 0.00 | 0.48 | 46 | 1020.4 |
| 20260905145507 | 21 | 151 | 4.8 | 11.3 | 0.00 | 0.00 | 0.48 | 46 | 1020.7 |
| 20260905145006 | 21 | 270 | 6.4 | 16.1 | 0.00 | 0.00 | 0.48 | 46 | 1020.3 |
| 20260905144507 | 21 | 281 | 1.6 | 8.0 | 0.00 | 0.00 | 0.48 | 48 | 1020.2 |
| 20260905144006 | 21 | 60 | 0.0 | 4.8 | 0.00 | 0.00 | 0.48 | 49 | 1020.4 |
| 20260905143507 | 21 | 308 | 4.8 | 9.7 | 0.00 | 0.00 | 0.48 | 47 | 1020.5 |
| 20260905143006 | 21 | 289 | 6.4 | 11.3 | 0.00 | 0.00 | 0.48 | 47 | 1020.5 |
| 20260905142506 | 22 | 271 | 3.2 | 12.9 | 0.00 | 0.00 | 0.48 | 44 | 1020.3 |
| 20260905142006 | 22 | 114 | 3.2 | 11.3 | 0.00 | 0.00 | 0.48 | 43 | 1020.2 |
| 20260905141506 | 22 | 7 | 1.6 | 9.7 | 0.00 | 0.00 | 0.48 | 44 | 1020.4 |
| 20260905141005 | 22 | 305 | 6.4 | 11.3 | 0.00 | 0.00 | 0.48 | 44 | 1020.4 |
| 20260905140506 | 23 | 346 | 6.4 | 11.3 | 0.00 | 0.00 | 0.48 | 44 | 1020.3 |
| 20260905140005 | 23 | 227 | 4.8 | 12.9 | 0.00 | 0.00 | 0.48 | 44 | 1020.3 |
| 20260905135506 | 22 | 291 | 3.2 | 9.7 | 0.00 | 0.00 | 0.48 | 45 | 1020.3 |
| 20260905135008 | 22 | 111 | 3.2 | 9.7 | 0.00 | 0.00 | 0.48 | 48 | 1020.2 |
| 20260905134506 | 22 | 198 | 9.7 | 12.9 | 0.00 | 0.00 | 0.48 | 47 | 1020.3 |
| 20260905134005 | 22 | 303 | 3.2 | 8.0 | 0.00 | 0.00 | 0.48 | 50 | 1020.3 |
| 20260905133506 | 22 | 353 | 6.4 | 14.5 | 0.00 | 0.00 | 0.48 | 46 | 1020.4 |
| 20260905133006 | 22 | 353 | 3.2 | 14.5 | 0.00 | 0.00 | 0.48 | 47 | 1020.4 |
| 20260905132507 | 21 | 260 | 4.8 | 14.5 | 0.00 | 0.00 | 0.48 | 48 | 1020.2 |
| 20260905132006 | 22 | 296 | 4.8 | 11.3 | 0.00 | 0.00 | 0.48 | 47 | 1020.5 |
| 20260905131507 | 22 | 48 | 1.6 | 4.8 | 0.00 | 0.00 | 0.48 | 47 | 1020.4 |
| 20260905131006 | 22 | 306 | 4.8 | 9.7 | 0.00 | 0.00 | 0.48 | 47 | 1020.3 |
| 20260905130507 | 22 | 304 | 4.8 | 11.3 | 0.00 | 0.00 | 0.48 | 45 | 1020.3 |
| 20260905130007 | 22 | 338 | 3.2 | 9.7 | 0.00 | 0.00 | 0.48 | 46 | 1020.4 |
| 20260905125507 | 23 | 28 | 4.8 | 9.7 | 0.00 | 0.00 | 0.48 | 45 | 1020.3 |
| 20260905125006 | 23 | 354 | 3.2 | 9.7 | 0.00 | 0.00 | 0.48 | 48 | 1020.2 |
| 20260905124506 | 23 | 186 | 4.8 | 12.9 | 0.00 | 0.00 | 0.48 | 46 | 1020.2 |
| 20260905124006 | 22 | 312 | 6.4 | 11.3 | 0.00 | 0.00 | 0.48 | 48 | 1020.4 |
| 20260905123506 | 22 | 160 | 4.8 | 11.3 | 0.00 | 0.00 | 0.48 | 49 | 1020.3 |
| 20260905123007 | 22 | 289 | 6.4 | 9.7 | 0.00 | 0.00 | 0.48 | 50 | 1020.4 |
| 20260905122507 | 22 | 216 | 6.4 | 12.9 | 0.00 | 0.00 | 0.48 | 49 | 1020.7 |
| 20260905122006 | 22 | 293 | 1.6 | 9.7 | 0.00 | 0.00 | 0.48 | 52 | 1020.7 |
| 20260905121506 | 22 | 180 | 1.6 | 9.7 | 0.00 | 0.00 | 0.48 | 51 | 1020.7 |
| 20260905121006 | 21 | 246 | 3.2 | 8.0 | 0.00 | 0.00 | 0.48 | 53 | 1020.8 |
| 20260905120507 | 21 | 3 | 3.2 | 11.3 | 0.00 | 0.00 | 0.48 | 53 | 1020.8 |
| 20260905120007 | 21 | 350 | 6.4 | 11.3 | 0.00 | 0.00 | 0.48 | 52 | 1021.0 |
| 20260905115507 | 21 | 291 | 1.6 | 12.9 | 0.00 | 0.00 | 0.48 | 54 | 1021.1 |
| 20260905115006 | 20 | 286 | 4.8 | 12.9 | 0.00 | 0.00 | 0.48 | 55 | 1020.9 |
| 20260905114505 | 21 | 291 | 9.7 | 20.9 | 0.00 | 0.00 | 0.48 | 52 | 1021.0 |
| 20260905114006 | 21 | 324 | 3.2 | 9.7 | 0.00 | 0.00 | 0.48 | 52 | 1020.9 |
| 20260905113507 | 21 | 321 | 3.2 | 9.7 | 0.00 | 0.00 | 0.48 | 56 | 1021.0 |
| 20260905113005 | 21 | 281 | 12.9 | 17.7 | 0.00 | 0.00 | 0.48 | 51 | 1021.2 |
| 20260905112506 | 21 | 198 | 6.4 | 12.9 | 0.00 | 0.00 | 0.48 | 53 | 1020.9 |
| 20260905112006 | 21 | 192 | 3.2 | 8.0 | 0.00 | 0.00 | 0.48 | 56 | 1021.0 |
| 20260905111507 | 21 | 110 | 3.2 | 8.0 | 0.00 | 0.00 | 0.48 | 54 | 1021.0 |
| 20260905111006 | 22 | 168 | 3.2 | 17.7 | 0.00 | 0.00 | 0.48 | 54 | 1020.9 |
| 20260905110505 | 22 | 260 | 4.8 | 14.5 | 0.00 | 0.00 | 0.48 | 55 | 1020.8 |
| 20260905110006 | 21 | 186 | 8.0 | 16.1 | 0.00 | 0.00 | 0.48 | 53 | 1020.8 |
| 20260905105505 | 21 | 227 | 3.2 | 11.3 | 0.00 | 0.00 | 0.48 | 57 | 1020.8 |
| 20260905105007 | 20 | 155 | 4.8 | 9.7 | 0.00 | 0.00 | 0.48 | 59 | 1020.7 |
| 20260905104507 | 21 | 210 | 3.2 | 9.7 | 0.00 | 0.00 | 0.48 | 56 | 1020.9 |
| 20260905104006 | 21 | 347 | 3.2 | 9.7 | 0.00 | 0.00 | 0.48 | 55 | 1020.8 |
| 20260905103507 | 21 | 154 | 8.0 | 12.9 | 0.00 | 0.00 | 0.48 | 54 | 1020.7 |
| 20260905103006 | 21 | 196 | 4.8 | 9.7 | 0.00 | 0.00 | 0.48 | 59 | 1020.7 |
| 20260905102507 | 21 | 177 | 1.6 | 11.3 | 0.00 | 0.00 | 0.48 | 56 | 1020.5 |
| 20260905102007 | 21 | 262 | 9.7 | 14.5 | 0.00 | 0.00 | 0.48 | 55 | 1020.9 |
| 20260905101506 | 21 | 335 | 3.2 | 8.0 | 0.00 | 0.00 | 0.48 | 57 | 1020.5 |
| 20260905101008 | 21 | 11 | 4.8 | 9.7 | 0.00 | 0.00 | 0.48 | 59 | 1020.8 |
| 20260905100505 | 20 | 5 | 3.2 | 9.7 | 0.00 | 0.00 | 0.48 | 60 | 1020.7 |
| 20260905100006 | 20 | 19 | 3.2 | 11.3 | 0.00 | 0.00 | 0.48 | 58 | 1020.6 |
| 20260905095506 | 20 | 339 | 6.4 | 16.1 | 0.00 | 0.00 | 0.48 | 56 | 1020.8 |
| 20260905095008 | 20 | 291 | 3.2 | 9.7 | 0.00 | 0.00 | 0.48 | 59 | 1020.6 |
| 20260905094505 | 20 | 353 | 4.8 | 9.7 | 0.00 | 0.00 | 0.48 | 61 | 1020.3 |
| 20260905094007 | 19 | 176 | 3.2 | 16.1 | 0.00 | 0.00 | 0.48 | 63 | 1020.8 |
| 20260905093506 | 20 | 324 | 4.8 | 12.9 | 0.00 | 0.00 | 0.48 | 61 | 1020.6 |
| 20260905093007 | 20 | 281 | 8.0 | 12.9 | 0.00 | 0.00 | 0.48 | 62 | 1020.7 |
| 20260905092506 | 20 | 317 | 3.2 | 9.7 | 0.00 | 0.00 | 0.48 | 63 | 1020.7 |
| 20260905092007 | 20 | 284 | 1.6 | 11.3 | 0.00 | 0.00 | 0.48 | 63 | 1020.6 |
| 20260905091507 | 20 | 293 | 4.8 | 11.3 | 0.00 | 0.00 | 0.48 | 61 | 1020.5 |
| 20260905091006 | 18 | 175 | 4.8 | 9.7 | 0.00 | 0.00 | 0.48 | 65 | 1020.8 |
| 20260905090506 | 18 | 102 | 1.6 | 12.9 | 0.00 | 0.00 | 0.48 | 65 | 1020.7 |
| 20260905090006 | 19 | 70 | 1.6 | 8.0 | 0.00 | 0.00 | 0.48 | 64 | 1020.6 |
| 20260905085507 | 20 | 13 | 3.2 | 3.2 | 0.00 | 0.00 | 0.48 | 62 | 1020.8 |
| 20260905085005 | 20 | 307 | 4.8 | 12.9 | 0.00 | 0.00 | 0.48 | 62 | 1020.6 |
| 20260905084507 | 20 | 253 | 6.4 | 12.9 | 0.00 | 0.00 | 0.48 | 62 | 1020.5 |
| 20260905084006 | 19 | 341 | 1.6 | 8.0 | 0.00 | 0.00 | 0.48 | 66 | 1020.6 |
| 20260905083505 | 19 | 309 | 3.2 | 9.7 | 0.00 | 0.00 | 0.48 | 66 | 1020.7 |
| 20260905083006 | 19 | 312 | 9.7 | 17.7 | 0.00 | 0.00 | 0.48 | 65 | 1020.7 |
| 20260905082506 | 18 | 178 | 6.4 | 14.5 | 0.00 | 0.00 | 0.48 | 67 | 1020.5 |
| 20260905082007 | 18 | 73 | 3.2 | 12.9 | 0.00 | 0.00 | 0.48 | 68 | 1020.3 |
| 20260905081507 | 17 | 289 | 3.2 | 4.8 | 0.00 | 0.00 | 0.48 | 72 | 1020.2 |
| 20260905081006 | 17 | 25 | 3.2 | 9.7 | 0.00 | 0.00 | 0.48 | 70 | 1020.4 |
| 20260905080507 | 17 | 262 | 3.2 | 9.7 | 0.00 | 0.00 | 0.48 | 70 | 1020.3 |
| 20260905080006 | 17 | 21 | 3.2 | 8.0 | 0.00 | 0.00 | 0.48 | 73 | 1020.3 |
| 20260905075505 | 17 | 302 | 1.6 | 4.8 | 0.00 | 0.00 | 0.48 | 73 | 1020.2 |
| 20260905075007 | 18 | 288 | 3.2 | 11.3 | 0.00 | 0.00 | 0.48 | 71 | 1020.2 |
| 20260905074506 | 18 | 289 | 4.8 | 8.0 | 0.00 | 0.00 | 0.48 | 71 | 1020.0 |
| 20260905074007 | 17 | 253 | 3.2 | 4.8 | 0.00 | 0.00 | 0.48 | 72 | 1020.1 |
| 20260905073506 | 18 | 261 | 4.8 | 11.3 | 0.00 | 0.00 | 0.48 | 71 | 1020.1 |
| 20260905073006 | 18 | 296 | 3.2 | 11.3 | 0.00 | 0.00 | 0.48 | 73 | 1019.9 |
| 20260905072506 | 17 | 351 | 3.2 | 8.0 | 0.00 | 0.00 | 0.48 | 75 | 1020.0 |
| 20260905072006 | 17 | 331 | 1.6 | 3.2 | 0.00 | 0.00 | 0.48 | 76 | 1019.7 |
| 20260905071505 | 17 | 253 | 4.8 | 17.7 | 0.00 | 0.00 | 0.48 | 75 | 1019.8 |
| 20260905071007 | 17 | 45 | 1.6 | 8.0 | 0.00 | 0.00 | 0.48 | 77 | 1019.7 |
| 20260905070507 | 17 | 285 | 8.0 | 12.9 | 0.00 | 0.00 | 0.48 | 77 | 1019.7 |
| 20260905070006 | 17 | 164 | 4.8 | 8.0 | 0.00 | 0.00 | 0.48 | 79 | 1019.8 |
| 20260905065507 | 16 | 263 | 3.2 | 4.8 | 0.00 | 0.00 | 0.48 | 81 | 1019.8 |
| 20260905065006 | 17 | 36 | 1.6 | 9.7 | 0.00 | 0.00 | 0.48 | 81 | 1019.7 |
| 20260905064511 | 17 | 265 | 6.4 | 11.3 | 0.00 | 0.00 | 0.48 | 81 | 1019.6 |
| 20260905064007 | 16 | 220 | 4.8 | 8.0 | 0.00 | 0.00 | 0.48 | 83 | 1019.8 |
| 20260905063505 | 16 | 128 | 4.8 | 8.0 | 0.00 | 0.00 | 0.48 | 84 | 1019.5 |
| 20260905063007 | 16 | 27 | 1.6 | 17.7 | 0.00 | 0.00 | 0.48 | 85 | 1019.4 |
| 20260905062506 | 16 | 74 | 0.0 | 8.0 | 0.03 | 0.00 | 0.48 | 86 | 1019.2 |
| 20260905062006 | 16 | 335 | 1.6 | 9.7 | 0.08 | 0.00 | 0.48 | 88 | 1019.3 |
| 20260905061506 | 16 | 343 | 4.8 | 8.0 | 0.20 | 0.00 | 0.48 | 88 | 1019.3 |
| 20260905061007 | 16 | 169 | 1.6 | 4.8 | 0.23 | 0.00 | 0.48 | 89 | 1019.4 |
| 20260905060506 | 16 | 31 | 1.6 | 4.8 | 0.23 | 0.00 | 0.48 | 91 | 1019.2 |
| 20260905060006 | 16 | 13 | 1.6 | 3.2 | 0.23 | 0.00 | 0.48 | 92 | 1019.4 |
| 20260905055507 | 15 | 299 | 3.2 | 3.2 | 0.23 | 0.00 | 0.48 | 93 | 1019.3 |
| 20260905055007 | 15 | 24 | 1.6 | 3.2 | 0.23 | 0.00 | 0.48 | 93 | 1019.3 |
| 20260905054506 | 15 | 31 | 1.6 | 4.8 | 0.23 | 0.00 | 0.48 | 92 | 1019.2 |
| 20260905054005 | 15 | 117 | 0.0 | 4.8 | 0.23 | 0.00 | 0.48 | 92 | 1019.0 |
| 20260905053506 | 15 | 351 | 0.0 | 4.8 | 0.23 | 0.00 | 0.48 | 91 | 1019.0 |
| 20260905053007 | 15 | 81 | 1.6 | 8.0 | 0.23 | 0.00 | 0.48 | 91 | 1019.0 |
| 20260905052507 | 15 | 33 | 1.6 | 8.0 | 0.15 | 0.00 | 0.41 | 89 | 1018.9 |
| 20260905052006 | 15 | 45 | 0.0 | 8.0 | 0.08 | 0.00 | 0.33 | 88 | 1018.8 |
| 20260905051506 | 15 | 19 | 1.6 | 4.8 | 0.00 | 0.00 | 0.25 | 88 | 1018.8 |
| 20260905051006 | 15 | 47 | 0.0 | 1.6 | 0.00 | 0.00 | 0.25 | 89 | 1018.8 |
| 20260905050506 | 15 | 244 | 1.6 | 4.8 | 0.00 | 0.00 | 0.25 | 89 | 1018.8 |
| 20260905050007 | 15 | 252 | 3.2 | 4.8 | 0.00 | 0.00 | 0.25 | 89 | 1018.7 |
| 20260905045505 | 15 | 36 | 0.0 | 4.8 | 0.00 | 0.00 | 0.25 | 89 | 1018.6 |
| 20260905045005 | 15 | 42 | 0.0 | 3.2 | 0.00 | 0.00 | 0.25 | 89 | 1018.7 |
| 20260905044506 | 15 | 58 | 0.0 | 4.8 | 0.00 | 0.00 | 0.25 | 89 | 1018.4 |
| 20260905044006 | 15 | 93 | 0.0 | 4.8 | 0.00 | 0.00 | 0.25 | 89 | 1018.5 |
| 20260905043506 | 15 | 174 | 1.6 | 3.2 | 0.00 | 0.00 | 0.25 | 89 | 1018.5 |
| 20260905043007 | 15 | 39 | 0.0 | 3.2 | 0.00 | 0.00 | 0.25 | 89 | 1018.4 |
| 20260905042505 | 15 | 49 | 0.0 | 1.6 | 0.00 | 0.00 | 0.25 | 89 | 1018.3 |
| 20260905042006 | 15 | 296 | 0.0 | 4.8 | 0.00 | 0.00 | 0.25 | 89 | 1018.4 |
| 20260905041505 | 15 | 89 | 0.0 | 1.6 | 0.00 | 0.00 | 0.25 | 89 | 1018.2 |
| 20260905041006 | 15 | 57 | 0.0 | 3.2 | 0.00 | 0.00 | 0.25 | 88 | 1018.3 |
| 20260905040506 | 15 | 88 | 1.6 | 8.0 | 0.00 | 0.00 | 0.25 | 89 | 1018.0 |
| 20260905040005 | 15 | 75 | 0.0 | 1.6 | 0.00 | 0.00 | 0.25 | 89 | 1018.0 |
| 20260905035506 | 15 | 357 | 1.6 | 3.2 | 0.00 | 0.00 | 0.25 | 89 | 1017.9 |
| 20260905035006 | 15 | 17 | 0.0 | 4.8 | 0.00 | 0.00 | 0.25 | 89 | 1017.8 |
| 20260905034506 | 15 | 20 | 1.6 | 8.0 | 0.00 | 0.00 | 0.25 | 88 | 1018.0 |
| 20260905034007 | 15 | 48 | 0.0 | 4.8 | 0.00 | 0.00 | 0.25 | 89 | 1018.0 |
| 20260905033506 | 15 | 193 | 4.8 | 8.0 | 0.00 | 0.00 | 0.25 | 89 | 1017.9 |
| 20260905033007 | 15 | 87 | 1.6 | 4.8 | 0.00 | 0.00 | 0.25 | 89 | 1018.0 |
| 20260905032506 | 15 | 188 | 1.6 | 8.0 | 0.00 | 0.00 | 0.25 | 89 | 1017.7 |
| 20260905032007 | 15 | 63 | 1.6 | 11.3 | 0.00 | 0.00 | 0.25 | 89 | 1017.8 |
| 20260905031506 | 15 | 154 | 3.2 | 3.2 | 0.00 | 0.00 | 0.25 | 89 | 1017.5 |
| 20260905031005 | 15 | 45 | 1.6 | 1.6 | 0.00 | 0.00 | 0.25 | 89 | 1017.4 |
| 20260905030506 | 15 | 165 | 1.6 | 1.6 | 0.00 | 0.00 | 0.25 | 90 | 1017.4 |
| 20260905030007 | 15 | 286 | 1.6 | 3.2 | 0.00 | 0.00 | 0.25 | 90 | 1017.3 |
| 20260905025505 | 15 | 8 | 0.0 | 3.2 | 0.00 | 0.00 | 0.25 | 90 | 1017.4 |
| 20260905025006 | 15 | 338 | 1.6 | 4.8 | 0.00 | 0.00 | 0.25 | 90 | 1017.3 |
| 20260905024506 | 15 | 275 | 4.8 | 9.7 | 0.00 | 0.00 | 0.25 | 90 | 1017.1 |
| 20260905024006 | 15 | 29 | 0.0 | 1.6 | 0.00 | 0.00 | 0.25 | 91 | 1017.1 |
| 20260905023506 | 15 | 78 | 1.6 | 11.3 | 0.00 | 0.00 | 0.25 | 91 | 1017.2 |
| 20260905023005 | 15 | 280 | 1.6 | 8.0 | 0.00 | 0.00 | 0.25 | 91 | 1016.8 |
| 20260905022506 | 15 | 316 | 4.8 | 8.0 | 0.00 | 0.00 | 0.25 | 91 | 1016.8 |
| 20260905022007 | 15 | 44 | 1.6 | 1.6 | 0.00 | 0.00 | 0.25 | 91 | 1016.7 |
| 20260905021506 | 15 | 15 | 0.0 | 3.2 | 0.00 | 0.00 | 0.25 | 92 | 1016.7 |
| 20260905021007 | 15 | 91 | 0.0 | 3.2 | 0.00 | 0.00 | 0.25 | 92 | 1016.9 |
| 20260905020506 | 15 | 257 | 1.6 | 1.6 | 0.00 | 0.00 | 0.25 | 91 | 1016.5 |
| 20260905020007 | 15 | 27 | 0.0 | 1.6 | 0.00 | 0.00 | 0.25 | 91 | 1016.3 |
| 20260905015506 | 15 | 143 | 1.6 | 8.0 | 0.00 | 0.00 | 0.25 | 91 | 1016.3 |
| 20260905015006 | 15 | 28 | 1.6 | 4.8 | 0.00 | 0.00 | 0.25 | 91 | 1016.2 |
| 20260905014506 | 15 | 141 | 1.6 | 4.8 | 0.00 | 0.00 | 0.25 | 92 | 1016.1 |
| 20260905014006 | 15 | 50 | 0.0 | 3.2 | 0.00 | 0.00 | 0.25 | 92 | 1016.7 |
| 20260905013506 | 15 | 81 | 0.0 | 1.6 | 0.00 | 0.00 | 0.25 | 92 | 1017.0 |
| 20260905013006 | 15 | 187 | 3.2 | 4.8 | 0.00 | 0.00 | 0.25 | 92 | 1016.9 |
| 20260905012506 | 15 | 26 | 1.6 | 3.2 | 0.00 | 0.00 | 0.25 | 92 | 1016.6 |
| 20260905012005 | 15 | 168 | 3.2 | 4.8 | 0.00 | 0.00 | 0.25 | 92 | 1016.4 |
| 20260905011505 | 16 | 272 | 0.0 | 3.2 | 0.00 | 0.00 | 0.25 | 92 | 1016.1 |
| 20260905011006 | 16 | 16 | 1.6 | 4.8 | 0.00 | 0.00 | 0.25 | 92 | 1016.4 |
| 20260905010506 | 16 | 88 | 0.0 | 4.8 | 0.00 | 0.00 | 0.25 | 93 | 1016.1 |
| 20260905010008 | 16 | 170 | 1.6 | 4.8 | 0.00 | 0.00 | 0.25 | 93 | 1015.7 |
| 20260905005505 | 16 | 261 | 4.8 | 9.7 | 0.00 | 0.00 | 0.25 | 93 | 1016.3 |
| 20260905005006 | 16 | 81 | 0.0 | 3.2 | 0.00 | 0.00 | 0.25 | 93 | 1016.2 |
| 20260905004507 | 16 | 155 | 1.6 | 3.2 | 0.00 | 0.00 | 0.25 | 93 | 1016.2 |
| 20260905004006 | 16 | 78 | 0.0 | 3.2 | 0.03 | 0.00 | 0.25 | 93 | 1016.7 |
| 20260905003507 | 16 | 38 | 1.6 | 3.2 | 0.03 | 0.00 | 0.25 | 93 | 1016.7 |
| 20260905003006 | 16 | 335 | 3.2 | 8.0 | 0.03 | 0.00 | 0.25 | 93 | 1016.6 |
| 20260905002506 | 16 | 26 | 0.0 | 8.0 | 0.03 | 0.00 | 0.25 | 93 | 1016.4 |
| 20260905002007 | 16 | 284 | 3.2 | 4.8 | 0.03 | 0.00 | 0.25 | 93 | 1016.2 |
| 20260905001506 | 16 | 297 | 0.0 | 9.7 | 0.03 | 0.00 | 0.25 | 93 | 1015.8 |
| 20260905001006 | 16 | 65 | 0.0 | 3.2 | 0.03 | 0.00 | 0.25 | 93 | 1016.0 |
| 20260905000507 | 16 | 295 | 1.6 | 4.8 | 0.05 | 0.00 | 0.25 | 93 | 1016.3 |
| 20260905000005 | 16 | 63 | 1.6 | 3.2 | 0.08 | 0.00 | 0.25 | 93 | 1016.2 |
| 20260904235506 | 16 | 225 | 4.8 | 8.0 | 0.08 | 0.00 | 0.25 | 93 | 1015.8 |
| 20260904235006 | 16 | 56 | 0.0 | 3.2 | 0.10 | 0.00 | 0.25 | 93 | 1015.7 |
| 20260904234506 | 16 | 271 | 4.8 | 4.8 | 0.10 | 0.00 | 0.25 | 93 | 1015.6 |
| 20260904234007 | 16 | 195 | 1.6 | 1.6 | 0.08 | 0.00 | 0.23 | 93 | 1016.0 |
| 20260904233506 | 16 | 45 | 1.6 | 4.8 | 0.10 | 0.00 | 0.23 | 93 | 1016.1 |
| 20260904233006 | 16 | 206 | 4.8 | 9.7 | 0.10 | 0.00 | 0.23 | 93 | 1016.0 |
| 20260904232507 | 16 | 33 | 1.6 | 8.0 | 0.10 | 0.00 | 0.23 | 93 | 1015.7 |
| 20260904232006 | 16 | 51 | 1.6 | 9.7 | 0.13 | 0.00 | 0.23 | 93 | 1015.4 |
| 20260904231506 | 16 | 222 | 3.2 | 4.8 | 0.15 | 0.00 | 0.23 | 93 | 1015.3 |
| 20260904231005 | 16 | 232 | 8.0 | 9.7 | 0.15 | 0.00 | 0.20 | 93 | 1015.5 |
| 20260904230506 | 16 | 154 | 3.2 | 11.3 | 0.18 | 0.00 | 0.20 | 93 | 1015.7 |
| 20260904230007 | 16 | 277 | 1.6 | 8.0 | 0.18 | 0.00 | 0.18 | 93 | 1015.5 |
| 20260904225507 | 16 | 5 | 3.2 | 9.7 | 0.15 | 0.00 | 0.15 | 93 | 1015.4 |
| 20260904225007 | 16 | 1 | 1.6 | 8.0 | 0.15 | 0.00 | 0.15 | 93 | 1015.3 |
| 20260904224506 | 16 | 40 | 1.6 | 4.8 | 0.18 | 0.00 | 0.15 | 93 | 1014.7 |
| 20260904224007 | 16 | 11 | 1.6 | 8.0 | 0.18 | 0.00 | 0.15 | 93 | 1015.2 |
| 20260904223506 | 16 | 96 | 1.6 | 4.8 | 0.18 | 0.00 | 0.13 | 93 | 1015.2 |
| 20260904223006 | 16 | 26 | 0.0 | 3.2 | 0.20 | 0.00 | 0.13 | 93 | 1015.0 |
| 20260904222505 | 16 | 211 | 3.2 | 8.0 | 0.18 | 0.00 | 0.10 | 93 | 1015.5 |
| 20260904222006 | 16 | 161 | 3.2 | 4.8 | 0.20 | 0.00 | 0.10 | 92 | 1015.0 |
| 20260904221506 | 16 | 295 | 1.6 | 4.8 | 0.18 | 0.00 | 0.08 | 92 | 1015.3 |
| 20260904221006 | 16 | 200 | 1.6 | 8.0 | 0.13 | 0.00 | 0.03 | 92 | 1015.3 |
| 20260904220506 | 16 | 189 | 1.6 | 4.8 | 0.13 | 0.00 | 0.00 | 92 | 1014.8 |
| 20260904220006 | 16 | 56 | 1.6 | 3.2 | 0.13 | 0.00 | 0.51 | 92 | 1014.9 |
| 20260904215507 | 16 | 32 | 1.6 | 4.8 | 0.15 | 0.00 | 0.51 | 92 | 1014.6 |
| 20260904215005 | 16 | 181 | 3.2 | 3.2 | 0.23 | 0.00 | 0.51 | 92 | 1014.8 |
| 20260904214506 | 16 | 211 | 3.2 | 8.0 | 0.20 | 0.00 | 0.48 | 92 | 1014.9 |
| 20260904214005 | 16 | 299 | 3.2 | 9.7 | 0.23 | 0.00 | 0.48 | 92 | 1015.2 |
| 20260904213506 | 16 | 6 | 1.6 | 3.2 | 0.20 | 0.00 | 0.46 | 92 | 1015.1 |
| 20260904213007 | 16 | 289 | 3.2 | 4.8 | 0.18 | 0.00 | 0.43 | 91 | 1015.1 |
| 20260904212505 | 16 | 0 | 1.6 | 3.2 | 0.23 | 0.00 | 0.43 | 91 | 1015.0 |
| 20260904212006 | 16 | 64 | 0.0 | 1.6 | 0.23 | 0.00 | 0.41 | 91 | 1015.0 |
| 20260904211508 | 16 | 296 | 0.0 | 1.6 | 0.23 | 0.00 | 0.41 | 91 | 1014.8 |
| 20260904211007 | 16 | 39 | 0.0 | 3.2 | 0.23 | 0.00 | 0.41 | 90 | 1014.7 |
| 20260904210506 | 16 | 27 | 1.6 | 8.0 | 0.20 | 0.00 | 0.38 | 90 | 1015.1 |
| 20260904210006 | 16 | 359 | 3.2 | 4.8 | 0.20 | 0.00 | 0.38 | 89 | 1015.3 |
| 20260904205507 | 16 | 307 | 3.2 | 8.0 | 0.13 | 0.00 | 0.30 | 88 | 1015.3 |
| 20260904205005 | 16 | 348 | 1.6 | 4.8 | 0.10 | 0.00 | 0.28 | 88 | 1015.2 |
| 20260904204506 | 16 | 327 | 4.8 | 9.7 | 0.10 | 0.00 | 0.28 | 87 | 1014.9 |
| 20260904204007 | 16 | 281 | 3.2 | 4.8 | 0.08 | 0.00 | 0.25 | 87 | 1015.0 |
| 20260904203506 | 17 | 269 | 4.8 | 8.0 | 0.10 | 0.00 | 0.25 | 86 | 1015.2 |
| 20260904203005 | 17 | 128 | 1.6 | 8.0 | 0.20 | 0.00 | 0.23 | 84 | 1015.3 |
| 20260904202505 | 17 | 33 | 1.6 | 4.8 | 0.15 | 0.00 | 0.18 | 84 | 1015.4 |
| 20260904202008 | 17 | 321 | 1.6 | 8.0 | 0.15 | 0.00 | 0.18 | 83 | 1014.8 |
| 20260904201506 | 17 | 21 | 4.8 | 8.0 | 0.15 | 0.00 | 0.18 | 85 | 1014.7 |
| 20260904201006 | 17 | 334 | 1.6 | 3.2 | 0.15 | 0.00 | 0.18 | 85 | 1014.6 |
| 20260904200505 | 17 | 48 | 1.6 | 4.8 | 0.15 | 0.00 | 0.18 | 84 | 1014.7 |
| 20260904200007 | 17 | 173 | 1.6 | 4.8 | 0.18 | 0.00 | 0.18 | 84 | 1014.8 |
| 20260904195505 | 17 | 345 | 0.0 | 8.0 | 0.18 | 0.00 | 0.18 | 84 | 1015.0 |
| 20260904195005 | 18 | 343 | 1.6 | 3.2 | 0.18 | 0.00 | 0.18 | 83 | 1015.1 |
| 20260904194506 | 18 | 218 | 3.2 | 4.8 | 0.18 | 0.00 | 0.18 | 81 | 1015.2 |
| 20260904194005 | 19 | 329 | 4.8 | 8.0 | 0.18 | 0.00 | 0.18 | 78 | 1014.8 |
| 20260904193505 | 21 | 254 | 6.4 | 11.3 | 0.08 | 0.00 | 0.08 | 71 | 1015.0 |
| 20260904193006 | 21 | 351 | 1.6 | 4.8 | 0.03 | 0.00 | 0.03 | 69 | 1014.1 |
| 20260904192507 | 20 | 286 | 4.8 | 11.3 | 0.03 | 0.00 | 0.03 | 71 | 1013.8 |
| 20260904192006 | 20 | 335 | 3.2 | 4.8 | 0.03 | 0.00 | 0.03 | 70 | 1013.7 |
| 20260904191506 | 21 | 12 | 6.4 | 12.9 | 0.03 | 0.00 | 0.03 | 70 | 1013.5 |
| 20260904191008 | 21 | 305 | 4.8 | 9.7 | 0.03 | 0.00 | 0.03 | 72 | 1013.6 |
| 20260904190507 | 22 | 243 | 6.4 | 11.3 | 0.03 | 0.00 | 0.03 | 67 | 1013.1 |
| 20260904190006 | 22 | 302 | 3.2 | 8.0 | 0.00 | 0.00 | 0.00 | 70 | 1013.6 |
| 20260904185506 | 22 | 21 | 1.6 | 3.2 | 0.00 | 0.00 | 0.00 | 70 | 1013.4 |
| 20260904185006 | 23 | 60 | 1.6 | 4.8 | 0.00 | 0.00 | 0.00 | 70 | 1013.1 |
| 20260904184507 | 23 | 341 | 3.2 | 12.9 | 0.00 | 0.00 | 0.00 | 70 | 1013.3 |
| 20260904184006 | 24 | 15 | 1.6 | 11.3 | 0.00 | 0.00 | 0.00 | 66 | 1013.0 |
| 20260904183507 | 25 | 319 | 1.6 | 8.0 | 0.00 | 0.00 | 0.00 | 65 | 1012.3 |
| 20260904183006 | 25 | 344 | 1.6 | 9.7 | 0.00 | 0.00 | 0.00 | 60 | 1011.5 |
| 20260904182507 | 25 | 190 | 3.2 | 9.7 | 0.00 | 0.00 | 0.00 | 60 | 1011.2 |
| 20260904182006 | 25 | 150 | 1.6 | 9.7 | 0.00 | 0.00 | 0.00 | 60 | 1011.0 |
| 20260904181506 | 25 | 85 | 3.2 | 9.7 | 0.00 | 0.00 | 0.00 | 60 | 1011.2 |
| 20260904181006 | 25 | 168 | 3.2 | 12.9 | 0.00 | 0.00 | 0.00 | 60 | 1011.0 |
| 20260904180506 | 25 | 144 | 4.8 | 11.3 | 0.00 | 0.00 | 0.00 | 60 | 1011.0 |
| 20260904180006 | 25 | 145 | 3.2 | 12.9 | 0.00 | 0.00 | 0.00 | 60 | 1010.9 |
| 20260904175506 | 25 | 166 | 8.0 | 9.7 | 0.00 | 0.00 | 0.00 | 60 | 1010.8 |
| 20260904175006 | 25 | 159 | 1.6 | 12.9 | 0.00 | 0.00 | 0.00 | 60 | 1010.9 |
| 20260904174507 | 25 | 190 | 3.2 | 9.7 | 0.00 | 0.00 | 0.00 | 61 | 1010.9 |
| 20260904174005 | 25 | 183 | 4.8 | 14.5 | 0.00 | 0.00 | 0.00 | 61 | 1010.9 |
| 20260904173507 | 25 | 173 | 4.8 | 8.0 | 0.00 | 0.00 | 0.00 | 61 | 1010.9 |
| 20260904173006 | 25 | 168 | 3.2 | 12.9 | 0.00 | 0.00 | 0.00 | 61 | 1011.1 |
| 20260904172506 | 25 | 194 | 6.4 | 12.9 | 0.00 | 0.00 | 0.00 | 61 | 1011.3 |
| 20260904172005 | 25 | 177 | 8.0 | 11.3 | 0.00 | 0.00 | 0.00 | 61 | 1011.5 |
| 20260904171506 | 25 | 102 | 1.6 | 8.0 | 0.00 | 0.00 | 0.00 | 61 | 1011.6 |
| 20260904171005 | 25 | 314 | 6.4 | 12.9 | 0.00 | 0.00 | 0.00 | 61 | 1011.7 |
| 20260904170506 | 25 | 130 | 1.6 | 17.7 | 0.00 | 0.00 | 0.00 | 61 | 1011.5 |
| 20260904170007 | 25 | 151 | 1.6 | 3.2 | 0.00 | 0.00 | 0.00 | 61 | 1011.8 |